Time;durP1;ratioP1;P1;durP2;ratioP2;P2;SDS_P1;SDS_P2;PMS_P1;PMS_P2;Temp;Humidity;BMP_temperature;BMP_pressure;BME280_temperature;BME280_humidity;BME280_pressure;Samples;Min_cycle;Max_cycle;Signal;HPM_P1;HPM_P2
2022/12/06 00:00:24;;;;;;;10.03;6.60;;;5.80;19.80;;;;;;5010337;28;20901;-70
2022/12/06 00:02:50;;;;;;;9.37;6.97;;;5.70;17.00;;;;;;5007994;28;20178;-71
2022/12/06 00:05:15;;;;;;;11.07;7.43;;;5.80;20.80;;;;;;5009144;28;20171;-71
2022/12/06 00:07:41;;;;;;;10.20;7.00;;;5.90;18.80;;;;;;5007726;28;20553;-71
2022/12/06 00:10:07;;;;;;;7.57;6.00;;;5.80;20.90;;;;;;5009184;28;20179;-71
2022/12/06 00:12:32;;;;;;;10.47;7.90;;;5.90;19.10;;;;;;5006338;28;20269;-72
2022/12/06 00:14:58;;;;;;;10.47;7.03;;;5.90;20.30;;;;;;5007883;28;20862;-72
2022/12/06 00:17:23;;;;;;;9.17;6.30;;;5.90;17.90;;;;;;5009265;28;20238;-70
2022/12/06 00:19:49;;;;;;;9.17;6.50;;;5.90;15.90;;;;;;5010420;28;20550;-68
2022/12/06 00:22:15;;;;;;;10.60;7.00;;;;;;;;;;5010231;28;20174;-72
2022/12/06 00:24:40;;;;;;;7.73;6.20;;;5.90;15.30;;;;;;5022277;28;20186;-71
2022/12/06 00:27:06;;;;;;;8.73;6.70;;;6.00;18.10;;;;;;5009817;28;20781;-71
2022/12/06 00:29:31;;;;;;;9.40;7.00;;;6.00;15.00;;;;;;5012971;28;20265;-71
2022/12/06 00:31:57;;;;;;;10.10;7.47;;;;;;;;;;5011182;28;20190;-71
2022/12/06 00:34:23;;;;;;;13.20;7.93;;;;;;;;;;5010665;28;20258;-72
2022/12/06 00:36:49;;;;;;;14.53;9.00;;;6.10;13.00;;;;;;5012011;28;20424;-71
2022/12/06 00:39:16;;;;;;;9.43;7.17;;;6.00;12.70;;;;;;5010952;28;21002;-71
2022/12/06 00:41:42;;;;;;;17.80;10.57;;;6.10;15.30;;;;;;5004376;28;20230;-71
2022/12/06 00:44:08;;;;;;;11.40;7.40;;;6.10;15.80;;;;;;5011036;28;20436;-72
2022/12/06 00:46:35;;;;;;;9.23;6.23;;;6.20;15.10;;;;;;5011543;28;20425;-72
2022/12/06 00:49:02;;;;;;;11.70;7.10;;;6.10;12.50;;;;;;5006050;28;20195;-72
2022/12/06 00:51:30;;;;;;;12.03;8.10;;;6.00;11.80;;;;;;5010083;28;20444;-72
2022/12/06 00:53:55;;;;;;;11.80;7.43;;;6.00;14.30;;;;;;5009376;28;20405;-72
2022/12/06 00:56:21;;;;;;;13.77;8.23;;;6.10;15.80;;;;;;5009910;28;20796;-71
2022/12/06 00:58:47;;;;;;;10.20;6.77;;;6.10;14.10;;;;;;5010798;28;20222;-71
2022/12/06 01:01:21;;;;;;;9.73;6.43;;;6.10;14.20;;;;;;5014548;28;20617;-72
2022/12/06 01:03:52;;;;;;;7.57;6.33;;;6.10;15.40;;;;;;5008914;28;20255;-71
2022/12/06 01:06:21;;;;;;;7.47;6.27;;;6.10;14.80;;;;;;5011394;28;20996;-71
2022/12/06 01:08:47;;;;;;;10.63;6.30;;;6.10;13.60;;;;;;5010591;28;20463;-71
2022/12/06 01:11:14;;;;;;;8.50;5.70;;;6.10;15.70;;;;;;5009204;28;20417;-72
2022/12/06 01:13:41;;;;;;;7.80;6.20;;;6.10;14.70;;;;;;5009195;28;20483;-72
2022/12/06 01:16:12;;;;;;;8.27;6.00;;;6.10;16.50;;;;;;5010615;28;20464;-72
2022/12/06 01:18:38;;;;;;;8.50;5.70;;;6.10;14.30;;;;;;5009728;28;20479;-72
2022/12/06 01:21:06;;;;;;;8.40;5.97;;;6.10;16.80;;;;;;5011016;28;20410;-71
2022/12/06 01:23:32;;;;;;;7.13;5.63;;;6.00;16.00;;;;;;5010626;28;20472;-72
2022/12/06 01:25:57;;;;;;;8.90;5.90;;;5.80;18.30;;;;;;5010471;28;20548;-71
2022/12/06 01:28:23;;;;;;;9.10;5.70;;;6.10;17.40;;;;;;5011835;28;20205;-71
2022/12/06 01:30:48;;;;;;;8.60;6.30;;;6.10;18.70;;;;;;5010884;28;20183;-71
2022/12/06 01:33:14;;;;;;;9.10;6.60;;;6.10;20.20;;;;;;5011201;28;20179;-71
2022/12/06 01:35:40;;;;;;;9.43;6.50;;;6.10;21.20;;;;;;5010736;28;20174;-71
2022/12/06 01:38:07;;;;;;;9.00;5.87;;;6.10;17.10;;;;;;5011164;28;20553;-71
2022/12/06 01:40:40;;;;;;;8.70;6.03;;;6.10;19.40;;;;;;5018321;28;20433;-68
2022/12/06 01:43:26;;;;;;;8.70;5.80;;;6.10;20.50;;;;;;5009948;28;20433;-72
2022/12/06 01:45:52;;;;;;;6.70;5.77;;;6.10;20.60;;;;;;5008474;28;20425;-71
2022/12/06 01:48:25;;;;;;;11.17;6.40;;;6.10;17.40;;;;;;5011487;28;20857;-71
2022/12/06 01:50:52;;;;;;;7.73;5.73;;;6.10;19.40;;;;;;5010123;28;20472;-71
2022/12/06 01:53:18;;;;;;;12.30;5.70;;;6.60;22.10;;;;;;5010947;28;20834;-71
2022/12/06 01:55:45;;;;;;;8.17;6.37;;;6.20;20.80;;;;;;5008646;28;20559;-70
2022/12/06 01:58:16;;;;;;;10.17;6.27;;;6.20;17.40;;;;;;5004115;28;20793;-71
2022/12/06 02:00:42;;;;;;;8.33;6.00;;;6.20;20.70;;;;;;5009872;28;20421;-72
2022/12/06 02:03:12;;;;;;;7.40;5.87;;;6.20;17.90;;;;;;5009588;28;20483;-71
2022/12/06 02:05:39;;;;;;;7.40;5.60;;;6.20;19.10;;;;;;5009866;28;20713;-71
2022/12/06 02:08:05;;;;;;;16.23;6.27;;;6.20;17.70;;;;;;5035102;22;20476;-73
2022/12/06 02:10:30;;;;;;;9.77;5.87;;;6.20;19.90;;;;;;5001965;28;20469;-72
2022/12/06 02:12:58;;;;;;;9.10;6.03;;;6.20;18.90;;;;;;5009376;28;20438;-71
2022/12/06 02:15:47;;;;;;;7.47;6.10;;;5.70;17.10;;;;;;5009875;28;20262;-72
2022/12/06 02:18:27;;;;;;;9.17;6.30;;;6.00;18.70;;;;;;4998925;28;20795;-73
2022/12/06 02:21:42;;;;;;;9.00;6.23;;;6.00;21.90;;;;;;4973159;28;20415;-71
2022/12/06 02:24:51;;;;;;;7.00;5.50;;;6.00;22.90;;;;;;4980064;28;20446;-71
2022/12/06 02:27:53;;;;;;;8.13;5.83;;;6.00;22.90;;;;;;4985021;28;20434;-71
2022/12/06 02:30:46;;;;;;;7.60;6.10;;;6.00;25.10;;;;;;4986183;28;20425;-71
2022/12/06 02:33:35;;;;;;;7.03;5.53;;;6.00;27.80;;;;;;4975557;28;20462;-73
2022/12/06 02:36:07;;;;;;;8.00;5.93;;;6.00;26.30;;;;;;4971006;28;20431;-71
2022/12/06 02:38:41;;;;;;;7.40;5.70;;;6.00;23.30;;;;;;4979105;28;20822;-70
2022/12/06 02:41:13;;;;;;;7.83;5.60;;;6.00;24.90;;;;;;4984203;28;20840;-71
2022/12/06 02:43:46;;;;;;;9.17;6.53;;;5.90;25.00;;;;;;4983339;28;20951;-69
2022/12/06 02:46:13;;;;;;;9.03;6.20;;;5.90;29.60;;;;;;4978085;28;20941;-69
2022/12/06 02:48:40;;;;;;;8.20;6.07;;;5.80;28.70;;;;;;4982127;28;20458;-71
2022/12/06 02:51:13;;;;;;;6.87;5.77;;;5.80;32.40;;;;;;4984889;28;20912;-69
2022/12/06 02:53:44;;;;;;;8.60;5.63;;;5.80;34.40;;;;;;4985670;28;20434;-69
2022/12/06 02:56:11;;;;;;;10.57;6.50;;;5.80;35.50;;;;;;4983268;28;20928;-69
2022/12/06 02:58:37;;;;;;;7.30;5.33;;;5.80;29.80;;;;;;4988837;28;20473;-71
2022/12/06 03:01:11;;;;;;;8.20;5.87;;;5.80;35.50;;;;;;4981043;28;20438;-68
2022/12/06 03:03:57;;;;;;;7.60;5.90;;;5.80;31.00;;;;;;4991039;28;20693;-69
2022/12/06 03:06:42;;;;;;;9.97;6.33;;;5.80;35.50;;;;;;4988744;28;20866;-69
2022/12/06 03:09:22;;;;;;;8.63;5.57;;;5.80;31.70;;;;;;4976225;28;20958;-71
2022/12/06 03:12:22;;;;;;;7.93;5.70;;;5.80;32.10;;;;;;4976468;28;20435;-68
2022/12/06 03:15:05;;;;;;;6.87;5.30;;;5.80;35.50;;;;;;4986146;28;20431;-69
2022/12/06 03:17:51;;;;;;;15.63;5.53;;;5.80;33.40;;;;;;4982080;28;20806;-70
2022/12/06 03:20:24;;;;;;;6.30;5.00;;;5.80;35.50;;;;;;4970884;28;20411;-69
2022/12/06 03:22:57;;;;;;;8.23;5.83;;;5.90;35.60;;;;;;4986597;28;20735;-69
2022/12/06 03:25:24;;;;;;;5.63;5.03;;;5.80;35.60;;;;;;4975633;28;20458;-72
2022/12/06 03:27:52;;;;;;;8.27;5.13;;;5.90;33.40;;;;;;4987003;28;20512;-69
2022/12/06 03:30:17;;;;;;;8.80;5.50;;;5.90;35.60;;;;;;4984057;28;20410;-72
2022/12/06 03:32:47;;;;;;;6.97;5.70;;;5.90;35.40;;;;;;4971975;28;20918;-69
2022/12/06 03:35:21;;;;;;;7.73;5.30;;;5.90;32.10;;;;;;4970293;28;20167;-70
2022/12/06 03:37:53;;;;;;;8.10;5.70;;;5.90;33.40;;;;;;4984225;28;20549;-69
2022/12/06 03:40:25;;;;;;;6.90;5.40;;;5.90;35.70;;;;;;4988177;28;20430;-69
2022/12/06 03:42:51;;;;;;;9.90;5.47;;;5.70;32.40;;;;;;4986761;28;20449;-69
2022/12/06 03:45:18;;;;;;;7.73;5.20;;;5.90;33.50;;;;;;4982976;28;20426;-69
2022/12/06 03:47:56;;;;;;;6.93;5.73;;;5.90;33.40;;;;;;4987468;28;20940;-69
2022/12/06 03:50:42;;;;;;;6.53;5.73;;;5.90;35.80;;;;;;4984164;28;20468;-69
2022/12/06 03:53:08;;;;;;;8.20;5.47;;;;;;;;;;4981001;28;20714;-69
2022/12/06 03:55:34;;;;;;;9.33;5.80;;;6.00;33.50;;;;;;4988152;28;20406;-68
2022/12/06 03:57:59;;;;;;;9.67;5.70;;;6.10;31.30;;;;;;4981475;28;20460;-69
2022/12/06 04:00:25;;;;;;;6.10;4.97;;;6.10;33.00;;;;;;4988891;28;20203;-69
2022/12/06 04:02:50;;;;;;;6.90;5.17;;;6.00;30.20;;;;;;4970058;28;20188;-68
2022/12/06 04:05:16;;;;;;;8.47;5.50;;;5.90;31.60;;;;;;4970077;28;20331;-69
2022/12/06 04:07:41;;;;;;;7.60;5.60;;;5.90;35.50;;;;;;4980400;28;20610;-71
2022/12/06 04:10:07;;;;;;;6.43;5.10;;;5.90;33.50;;;;;;4989378;28;20520;-70
2022/12/06 04:12:59;;;;;;;6.60;5.33;;;5.90;35.50;;;;;;4983391;28;20195;-71
2022/12/06 04:15:25;;;;;;;8.53;5.53;;;6.00;35.60;;;;;;4983202;28;20425;-69
2022/12/06 04:18:09;;;;;;;7.50;5.80;;;6.00;33.50;;;;;;4980872;28;21028;-69
2022/12/06 04:23:31;;;;;;;8.13;6.50;;;6.10;35.70;;;;;;4978212;28;20442;-69
2022/12/06 04:25:57;;;;;;;6.80;5.97;;;6.10;35.80;;;;;;4987436;28;20446;-70
2022/12/06 04:39:21;;;;;;;7.60;5.40;;;6.10;26.20;;;;;;4980800;28;20476;-71
2022/12/06 04:44:31;;;;;;;6.70;5.20;;;6.10;33.50;;;;;;4981277;28;20737;-70
2022/12/06 04:46:56;;;;;;;7.23;5.50;;;6.10;35.60;;;;;;4988179;28;20430;-68
2022/12/06 04:49:25;;;;;;;6.53;5.17;;;6.10;29.10;;;;;;4981352;28;20202;-69
2022/12/06 04:51:51;;;;;;;8.13;5.13;;;6.20;35.90;;;;;;4987384;28;20183;-68
2022/12/06 04:54:16;;;;;;;7.70;5.43;;;6.20;35.80;;;;;;4980616;28;20516;-69
2022/12/06 04:56:42;;;;;;;7.77;5.87;;;6.20;35.30;;;;;;4986943;28;20988;-71
2022/12/06 04:59:08;;;;;;;7.60;5.27;;;6.10;25.50;;;;;;4983389;28;20551;-69
2022/12/06 05:01:33;;;;;;;8.20;5.67;;;6.10;28.80;;;;;;4978010;28;20235;-69
2022/12/06 05:03:59;;;;;;;9.77;5.97;;;6.10;35.50;;;;;;4969846;28;20199;-69
2022/12/06 05:06:24;;;;;;;6.80;4.90;;;6.10;32.30;;;;;;4986920;28;20184;-70
2022/12/06 05:08:50;;;;;;;6.60;5.50;;;6.10;33.60;;;;;;4973848;28;20231;-69
2022/12/06 05:11:15;;;;;;;10.80;5.90;;;6.10;35.70;;;;;;4985033;28;20182;-69
2022/12/06 05:13:41;;;;;;;8.50;5.80;;;6.00;35.80;;;;;;4986472;28;20183;-71
2022/12/06 05:16:07;;;;;;;7.83;5.40;;;6.00;35.70;;;;;;4986526;28;20179;-71
2022/12/06 05:18:33;;;;;;;9.93;5.53;;;6.00;33.50;;;;;;4991984;28;20635;-69
2022/12/06 05:21:07;;;;;;;6.93;5.50;;;6.00;35.70;;;;;;4983576;28;20498;-69
2022/12/06 05:23:33;;;;;;;7.00;5.60;;;6.10;33.60;;;;;;4991236;28;20438;-71
2022/12/06 05:26:02;;;;;;;7.43;5.27;;;6.10;35.80;;;;;;4984610;28;20437;-69
2022/12/06 05:28:28;;;;;;;7.17;5.13;;;6.10;33.60;;;;;;4989600;28;20454;-70
2022/12/06 05:30:54;;;;;;;8.13;5.27;;;6.10;35.90;;;;;;4980268;28;20533;-69
2022/12/06 05:33:20;;;;;;;8.10;5.50;;;6.10;35.70;;;;;;4983700;28;20509;-70
2022/12/06 05:35:45;;;;;;;7.27;5.40;;;6.10;35.70;;;;;;4990182;28;20184;-73
2022/12/06 05:38:11;;;;;;;6.67;5.10;;;5.90;33.60;;;;;;4981223;28;20477;-71
2022/12/06 05:40:39;;;;;;;8.27;5.07;;;5.90;35.60;;;;;;4988594;28;20175;-73
2022/12/06 05:43:05;;;;;;;7.47;5.20;;;5.80;35.70;;;;;;4984001;28;20582;-69
2022/12/06 05:45:31;;;;;;;9.70;5.37;;;;;;;;;;4974418;28;20416;-71
2022/12/06 05:47:56;;;;;;;8.13;5.40;;;5.90;33.40;;;;;;4979026;28;20185;-71
2022/12/06 05:50:22;;;;;;;6.80;5.40;;;5.90;35.80;;;;;;4990628;28;20175;-74
2022/12/06 05:52:47;;;;;;;9.03;5.20;;;6.00;35.80;;;;;;4990970;28;20697;-71
2022/12/06 05:55:13;;;;;;;7.80;5.70;;;6.00;35.90;;;;;;4989129;28;20653;-71
2022/12/06 05:57:38;;;;;;;7.90;6.10;;;6.00;35.70;;;;;;4974636;28;20200;-74
2022/12/06 06:00:05;;;;;;;8.03;6.03;;;6.00;33.50;;;;;;4976525;28;20193;-75
2022/12/06 06:02:30;;;;;;;9.77;6.00;;;6.00;35.90;;;;;;4983094;28;20276;-71
2022/12/06 06:04:56;;;;;;;8.67;6.30;;;6.00;35.80;;;;;;4986189;28;20529;-72
2022/12/06 06:07:21;;;;;;;9.83;5.97;;;6.00;35.70;;;;;;4985955;28;20708;-72
2022/12/06 06:09:47;;;;;;;8.00;6.30;;;5.90;33.40;;;;;;4987541;28;20214;-71
2022/12/06 06:12:12;;;;;;;8.93;5.60;;;5.90;36.00;;;;;;4981460;28;20176;-71
2022/12/06 06:14:38;;;;;;;8.10;5.60;;;5.80;37.00;;;;;;4983839;28;20173;-71
2022/12/06 06:17:04;;;;;;;7.97;6.00;;;5.80;40.60;;;;;;4987374;28;20188;-71
2022/12/06 06:19:29;;;;;;;7.70;5.13;;;5.80;33.40;;;;;;4979573;28;20212;-73
2022/12/06 06:21:55;;;;;;;8.07;5.87;;;5.80;43.80;;;;;;4974802;28;20679;-71
2022/12/06 06:24:20;;;;;;;7.83;5.40;;;5.70;47.60;;;;;;4983141;28;20183;-72
2022/12/06 06:26:46;;;;;;;8.87;5.63;;;5.70;44.40;;;;;;4981825;28;20187;-71
2022/12/06 06:29:12;;;;;;;7.63;5.57;;;;;;;;;;4978152;28;20191;-71
2022/12/06 06:31:38;;;;;;;6.53;5.10;;;5.80;36.60;;;;;;4974958;28;20276;-71
2022/12/06 06:34:03;;;;;;;8.30;5.33;;;5.80;45.60;;;;;;4982435;28;20521;-71
2022/12/06 06:36:29;;;;;;;7.00;5.33;;;5.80;42.30;;;;;;4981727;28;20518;-73
2022/12/06 06:38:54;;;;;;;6.97;4.70;;;5.80;33.40;;;;;;4982099;28;20221;-71
2022/12/06 06:41:20;;;;;;;9.40;5.63;;;5.80;42.70;;;;;;4990724;28;20181;-72
2022/12/06 06:43:45;;;;;;;8.80;6.10;;;5.90;40.30;;;;;;4988217;28;20198;-75
2022/12/06 06:46:11;;;;;;;7.47;5.23;;;5.90;35.80;;;;;;4984698;28;20171;-71
2022/12/06 06:48:38;;;;;;;6.73;4.87;;;6.00;33.50;;;;;;4988318;28;20210;-72
2022/12/06 06:51:06;;;;;;;7.27;5.03;;;6.00;35.80;;;;;;4970492;28;20208;-72
2022/12/06 06:53:32;;;;;;;6.90;5.50;;;5.80;33.50;;;;;;4985529;28;20529;-76
2022/12/06 06:55:57;;;;;;;9.20;5.40;;;5.80;36.80;;;;;;4991017;28;20501;-71
2022/12/06 06:58:23;;;;;;;6.90;5.30;;;5.70;45.50;;;;;;4989080;28;20589;-72
2022/12/06 07:00:53;;;;;;;5.80;4.70;;;5.70;48.40;;;;;;4979305;28;20176;-72
2022/12/06 07:03:19;;;;;;;6.43;4.80;;;;;;;;;;4983564;28;20187;-72
2022/12/06 07:05:51;;;;;;;7.57;4.80;;;5.70;46.80;;;;;;4979668;28;20446;-71
2022/12/06 07:08:17;;;;;;;8.17;4.90;;;5.80;43.00;;;;;;4972482;28;20443;-71
2022/12/06 07:10:47;;;;;;;5.50;4.20;;;5.80;46.70;;;;;;4973499;28;20476;-70
2022/12/06 07:13:16;;;;;;;6.13;4.17;;;5.80;46.70;;;;;;4987836;28;20171;-71
2022/12/06 07:15:42;;;;;;;6.10;4.37;;;5.80;39.70;;;;;;4985243;28;20430;-71
2022/12/06 07:18:07;;;;;;;7.60;4.83;;;5.70;43.60;;;;;;4981427;28;20999;-72
2022/12/06 07:20:33;;;;;;;6.83;4.33;;;5.70;47.30;;;;;;4969779;28;20631;-74
2022/12/06 07:22:58;;;;;;;5.30;4.03;;;5.70;49.20;;;;;;4986854;28;20690;-71
2022/12/06 07:25:24;;;;;;;5.50;4.30;;;5.70;52.00;;;;;;4976883;28;20271;-71
2022/12/06 07:27:50;;;;;;;6.13;4.13;;;;;;;;;;4986079;28;20672;-74
2022/12/06 07:30:16;;;;;;;6.00;4.40;;;5.80;40.70;;;;;;4981107;28;20519;-71
2022/12/06 07:32:41;;;;;;;7.20;4.30;;;5.70;48.20;;;;;;4986577;28;20187;-72
2022/12/06 07:35:07;;;;;;;7.50;4.23;;;5.70;41.10;;;;;;4987439;28;20430;-71
2022/12/06 07:37:33;;;;;;;5.60;4.40;;;5.70;40.30;;;;;;4989007;28;20225;-71
2022/12/06 07:39:58;;;;;;;6.70;4.67;;;5.70;42.20;;;;;;4988207;28;20678;-72
2022/12/06 07:45:10;;;;;;;8.33;5.03;;;5.70;45.40;;;;;;4982987;28;20190;-77
2022/12/06 07:47:42;;;;;;;7.57;5.03;;;5.70;39.40;;;;;;4984738;28;20941;-72
2022/12/06 07:50:11;;;;;;;6.27;4.90;;;5.80;40.20;;;;;;4982178;28;20465;-74
2022/12/06 07:52:37;;;;;;;7.97;5.07;;;5.80;43.50;;;;;;4980946;28;20419;-73
2022/12/06 07:55:04;;;;;;;6.57;5.10;;;5.80;35.90;;;;;;4985761;28;20818;-71
2022/12/06 07:57:30;;;;;;;6.17;4.50;;;5.80;35.60;;;;;;4980668;28;20263;-71
2022/12/06 07:59:55;;;;;;;6.80;4.97;;;5.90;33.60;;;;;;4981325;28;20965;-74
2022/12/06 08:02:24;;;;;;;9.00;6.23;;;5.90;37.60;;;;;;4985355;28;20352;-73
2022/12/06 15:03:02;;;;;;;10.37;7.07;;;5.60;19.60;;;;;;5052871;28;20604;-69
2022/12/06 15:05:35;;;;;;;7.83;5.07;;;5.70;23.20;;;;;;5041939;28;20476;-69
2022/12/06 15:08:26;;;;;;;5.73;4.80;;;5.80;19.30;;;;;;5037176;28;20419;-69
2022/12/06 15:10:58;;;;;;;13.43;6.57;;;6.00;16.80;;;;;;5060523;28;20774;-70
2022/12/06 15:13:24;;;;;;;9.27;5.67;;;6.10;17.20;;;;;;5064576;28;20414;-69
2022/12/06 15:16:22;;;;;;;9.10;5.00;;;6.30;13.80;;;;;;5064532;28;20419;-69
2022/12/06 15:18:58;;;;;;;6.50;4.73;;;6.40;12.30;;;;;;5052947;28;20182;-70
2022/12/06 15:21:24;;;;;;;10.40;4.93;;;6.60;7.80;;;;;;5067826;28;20493;-70
2022/12/06 15:23:51;;;;;;;7.80;5.17;;;6.60;8.50;;;;;;5066260;28;20691;-69
2022/12/06 15:26:19;;;;;;;6.17;4.87;;;6.70;4.10;;;;;;5066719;28;20238;-70
2022/12/06 15:28:45;;;;;;;12.90;5.10;;;6.70;3.90;;;;;;5065324;28;20419;-69
2022/12/06 15:31:22;;;;;;;6.03;4.70;;;6.80;3.00;;;;;;5063762;28;20495;-70
2022/12/06 15:33:47;;;;;;;6.20;5.00;;;6.90;1.30;;;;;;5055670;28;20922;-69
2022/12/06 15:36:25;;;;;;;5.87;4.87;;;6.90;1.00;;;;;;5066272;28;21887;-70
2022/12/06 15:38:51;;;;;;;7.03;4.80;;;6.90;1.00;;;;;;5063789;28;20713;-69
2022/12/06 15:41:19;;;;;;;6.30;4.60;;;6.90;1.00;;;;;;5062197;28;20470;-69
2022/12/06 15:43:45;;;;;;;7.20;5.67;;;7.00;1.00;;;;;;5059504;28;20537;-69
2022/12/06 15:46:19;;;;;;;9.77;5.43;;;7.00;1.00;;;;;;5063675;28;20418;-70
2022/12/06 15:48:45;;;;;;;6.10;4.70;;;7.00;1.00;;;;;;5058860;28;20183;-70
2022/12/06 15:51:14;;;;;;;6.17;4.60;;;6.90;1.00;;;;;;5062766;28;20434;-70
2022/12/06 15:53:40;;;;;;;7.63;5.40;;;6.90;1.00;;;;;;5059597;28;20663;-69
2022/12/06 15:56:10;;;;;;;8.00;5.87;;;6.90;1.00;;;;;;5065537;28;20515;-70
2022/12/06 15:58:37;;;;;;;7.07;5.30;;;6.90;1.00;;;;;;5057981;28;20782;-69
2022/12/06 16:01:02;;;;;;;8.00;5.90;;;7.00;1.00;;;;;;5062511;28;20793;-68
2022/12/06 16:03:28;;;;;;;7.57;4.83;;;7.00;1.00;;;;;;5060679;28;20434;-68
2022/12/06 16:05:55;;;;;;;7.20;5.40;;;7.00;1.00;;;;;;5064375;28;20195;-69
2022/12/06 16:08:20;;;;;;;9.50;6.03;;;7.00;1.00;;;;;;5056478;28;20525;-70
2022/12/06 16:10:46;;;;;;;8.20;6.23;;;7.00;1.00;;;;;;5062628;28;20596;-68
2022/12/06 16:13:20;;;;;;;8.00;6.30;;;6.90;1.00;;;;;;5050044;28;20181;-70
2022/12/06 16:15:46;;;;;;;9.00;6.00;;;6.90;1.00;;;;;;5043171;28;20559;-69
2022/12/06 16:18:11;;;;;;;9.37;6.20;;;6.90;1.00;;;;;;5051522;28;20431;-70
2022/12/06 16:20:39;;;;;;;8.37;5.93;;;7.00;1.00;;;;;;5043789;28;20213;-70
2022/12/06 16:25:58;;;;;;;9.40;6.40;;;7.00;1.00;;;;;;5043212;28;20435;-69
2022/12/06 16:28:25;;;;;;;9.17;6.13;;;7.00;1.00;;;;;;5046527;28;20419;-70
2022/12/06 16:30:50;;;;;;;7.87;6.77;;;7.10;1.00;;;;;;5045943;28;20204;-69
2022/12/06 16:33:18;;;;;;;8.83;6.33;;;7.10;1.00;;;;;;5052481;28;20431;-70
2022/12/06 16:35:44;;;;;;;8.53;6.90;;;7.00;1.00;;;;;;5052394;28;20181;-70
2022/12/06 16:38:16;;;;;;;10.70;7.23;;;7.00;1.00;;;;;;5051053;28;20527;-70
2022/12/06 16:40:43;;;;;;;11.60;6.90;;;7.00;1.00;;;;;;5048136;28;20201;-70
2022/12/06 16:43:09;;;;;;;9.30;6.90;;;7.00;1.00;;;;;;5051216;28;20898;-70
2022/12/06 16:45:37;;;;;;;10.40;7.17;;;7.00;1.00;;;;;;5052837;28;20438;-70
2022/12/06 16:48:11;;;;;;;11.40;7.57;;;7.00;1.00;;;;;;5047749;28;20338;-70
2022/12/06 16:50:36;;;;;;;10.90;7.13;;;7.00;1.00;;;;;;5049649;28;20459;-69
2022/12/06 16:53:02;;;;;;;9.30;7.07;;;7.00;1.00;;;;;;5050431;28;20452;-70
2022/12/06 16:55:28;;;;;;;13.40;7.70;;;7.00;1.00;;;;;;5049970;28;20185;-70
2022/12/06 16:57:55;;;;;;;11.60;7.00;;;6.90;1.00;;;;;;5047573;28;20431;-69
2022/12/06 17:00:21;;;;;;;12.90;7.30;;;6.90;1.00;;;;;;5051481;28;20737;-70
2022/12/06 17:02:47;;;;;;;9.70;7.03;;;6.90;1.00;;;;;;5048972;28;20749;-69
2022/12/06 17:05:22;;;;;;;15.63;7.80;;;6.90;1.00;;;;;;5047259;28;20436;-68
2022/12/06 17:07:48;;;;;;;10.77;7.10;;;7.00;1.00;;;;;;5039554;28;20239;-70
2022/12/06 17:10:14;;;;;;;8.93;5.90;;;7.00;1.00;;;;;;5049331;28;20825;-69
2022/12/06 17:12:42;;;;;;;9.53;6.20;;;7.00;1.00;;;;;;5044098;28;20279;-70
2022/12/06 17:15:13;;;;;;;9.50;6.33;;;7.00;1.00;;;;;;5048508;28;20545;-70
2022/12/06 17:17:39;;;;;;;8.82;5.20;;;7.00;1.00;;;;;;5049083;28;20476;-69
2022/12/06 17:20:07;;;;;;;5.50;4.87;;;7.10;1.00;;;;;;5050750;28;20197;-70
2022/12/06 17:22:34;;;;;;;5.20;4.13;;;7.10;1.00;;;;;;5046203;28;20983;-70
2022/12/06 17:24:59;;;;;;;5.77;3.97;;;7.00;1.00;;;;;;5047885;28;20550;-71
2022/12/06 17:27:25;;;;;;;8.00;4.07;;;6.90;1.00;;;;;;5041309;28;20428;-69
2022/12/06 17:29:51;;;;;;;7.80;6.10;;;6.90;1.00;;;;;;5048359;28;20204;-68
2022/12/06 17:32:17;;;;;;;7.50;5.37;;;6.90;1.00;;;;;;5048133;28;20181;-69
2022/12/06 17:34:42;;;;;;;6.73;5.23;;;6.80;1.00;;;;;;5050850;28;20177;-70
2022/12/06 17:37:08;;;;;;;8.90;6.60;;;6.80;1.00;;;;;;5045813;28;20428;-70
2022/12/06 17:39:34;;;;;;;9.87;5.90;;;6.70;1.00;;;;;;5052118;28;20614;-69
2022/12/06 17:44:44;;;;;;;10.63;7.20;;;6.80;1.00;;;;;;5044589;28;20187;-70
2022/12/06 17:47:11;;;;;;;13.20;7.50;;;6.80;1.00;;;;;;5048412;28;20435;-70
2022/12/06 17:49:37;;;;;;;12.03;7.37;;;6.80;1.00;;;;;;5052380;28;20220;-69
2022/12/06 17:52:03;;;;;;;9.53;6.20;;;6.80;1.00;;;;;;5049270;28;20866;-69
2022/12/06 17:54:29;;;;;;;11.10;6.77;;;6.70;1.00;;;;;;5048383;28;20460;-70
2022/12/06 17:56:55;;;;;;;15.20;8.27;;;6.60;1.00;;;;;;5048788;28;20444;-68
2022/12/06 17:59:31;;;;;;;14.50;7.97;;;6.60;1.00;;;;;;5048370;28;20184;-72
2022/12/06 18:01:59;;;;;;;12.80;8.17;;;6.60;2.60;;;;;;5051101;28;20350;-72
2022/12/06 18:04:26;;;;;;;10.87;7.90;;;6.60;2.80;;;;;;5050406;28;20432;-70
2022/12/06 18:06:52;;;;;;;13.10;8.50;;;6.70;1.80;;;;;;5047162;28;20438;-71
2022/12/06 18:09:17;;;;;;;11.80;7.73;;;6.60;1.00;;;;;;5045743;28;20416;-70
2022/12/06 18:11:43;;;;;;;12.07;8.40;;;6.60;2.00;;;;;;5051871;28;20187;-69
2022/12/06 18:14:11;;;;;;;17.03;9.77;;;6.70;3.20;;;;;;5045438;28;20463;-70
2022/12/06 18:16:39;;;;;;;19.83;15.20;;;6.70;3.20;;;;;;5048732;28;20556;-69
2022/12/06 18:19:14;;;;;;;24.90;15.57;;;6.70;1.00;;;;;;5046282;28;20962;-69
2022/12/06 18:21:40;;;;;;;19.77;12.50;;;6.70;1.80;;;;;;5040707;28;20471;-69
2022/12/06 18:24:07;;;;;;;19.13;12.63;;;6.70;1.00;;;;;;5049071;28;20423;-69
2022/12/06 18:26:32;;;;;;;23.33;12.60;;;6.60;3.00;;;;;;5049401;28;20427;-70
2022/12/06 18:29:00;;;;;;;22.77;11.23;;;6.60;4.10;;;;;;5047941;28;20419;-69
2022/12/06 18:31:28;;;;;;;17.30;10.50;;;6.60;2.80;;;;;;5051324;28;20204;-70
2022/12/06 18:33:56;;;;;;;17.83;9.80;;;6.60;5.60;;;;;;5045918;28;20443;-70
2022/12/06 18:36:21;;;;;;;18.87;10.53;;;6.60;3.70;;;;;;5044144;28;20489;-69
2022/12/06 18:38:48;;;;;;;19.60;12.17;;;6.60;4.50;;;;;;5047601;28;20428;-69
2022/12/06 18:41:16;;;;;;;17.60;8.90;;;8.20;3.30;;;;;;5047202;28;20224;-68
2022/12/06 18:43:42;;;;;;;13.20;9.37;;;6.70;5.30;;;;;;5042327;28;20657;-69
2022/12/06 18:46:12;;;;;;;15.17;10.00;;;6.70;4.20;;;;;;5047661;28;20423;-69
2022/12/06 18:48:40;;;;;;;13.27;9.30;;;6.60;4.90;;;;;;5042566;28;20858;-69
2022/12/06 18:51:08;;;;;;;17.50;9.90;;;6.60;2.20;;;;;;5047539;28;20509;-69
2022/12/06 18:53:34;;;;;;;14.20;9.20;;;6.60;5.20;;;;;;5033559;28;20435;-69
2022/12/06 18:56:00;;;;;;;18.00;11.50;;;6.60;5.00;;;;;;5047458;28;20432;-69
2022/12/06 18:58:26;;;;;;;19.33;12.67;;;6.50;3.80;;;;;;5047821;28;20428;-70
2022/12/06 19:00:51;;;;;;;12.20;8.40;;;6.50;4.10;;;;;;5049853;28;20459;-67
2022/12/06 19:03:17;;;;;;;11.07;6.60;;;6.40;6.40;;;;;;5048105;28;20185;-69
2022/12/06 19:05:43;;;;;;;8.40;5.40;;;6.40;6.10;;;;;;5040008;28;20608;-70
2022/12/06 19:08:08;;;;;;;6.80;4.80;;;6.50;5.60;;;;;;5040317;28;20172;-69
2022/12/06 19:10:34;;;;;;;5.53;3.93;;;6.60;2.00;;;;;;5045902;28;20193;-70
2022/12/06 19:13:00;;;;;;;5.70;4.90;;;6.60;2.80;;;;;;5043680;28;20176;-69
2022/12/06 19:15:25;;;;;;;8.33;5.33;;;6.60;1.00;;;;;;5046375;28;20419;-69
2022/12/06 19:17:51;;;;;;;9.37;7.23;;;6.60;1.80;;;;;;5046817;28;20242;-69
2022/12/06 19:20:17;;;;;;;9.60;6.87;;;6.60;1.00;;;;;;5044683;28;20453;-71
2022/12/06 19:22:43;;;;;;;8.37;5.53;;;6.60;2.70;;;;;;5045442;28;20205;-71
2022/12/06 19:25:10;;;;;;;7.20;4.73;;;6.60;2.60;;;;;;5041711;28;20557;-70
2022/12/06 19:27:36;;;;;;;7.82;5.63;;;6.70;2.50;;;;;;5046046;28;20422;-70
2022/12/06 19:30:03;;;;;;;7.50;4.70;;;6.80;2.60;;;;;;5047300;28;20920;-71
2022/12/06 19:32:29;;;;;;;9.63;5.37;;;6.80;3.50;;;;;;5054827;28;20185;-73
2022/12/06 19:34:55;;;;;;;9.00;5.00;;;6.80;1.00;;;;;;5040069;28;20450;-73
2022/12/06 19:37:21;;;;;;;13.70;8.40;;;6.80;1.00;;;;;;5047014;28;20442;-74
2022/12/06 19:39:46;;;;;;;8.10;5.30;;;6.70;1.00;;;;;;5048488;28;20834;-73
2022/12/06 19:44:56;;;;;;;5.03;4.10;;;6.70;1.00;;;;;;5043327;28;20188;-71
2022/12/06 19:47:21;;;;;;;5.97;4.93;;;6.70;1.00;;;;;;5045237;28;20424;-70
2022/12/06 19:49:47;;;;;;;22.10;8.70;;;6.70;1.00;;;;;;5048280;28;20297;-70
2022/12/06 19:52:13;;;;;;;19.33;8.93;;;6.70;1.00;;;;;;5050698;28;20315;-71
2022/12/06 19:54:39;;;;;;;18.20;9.00;;;6.70;1.00;;;;;;5049240;28;20532;-71
2022/12/06 19:57:04;;;;;;;17.63;8.83;;;6.70;1.00;;;;;;5040953;28;20185;-70
2022/12/06 19:59:35;;;;;;;20.03;8.77;;;6.70;1.00;;;;;;5049691;28;20474;-71
2022/12/06 20:02:02;;;;;;;19.63;8.67;;;6.70;1.40;;;;;;5047765;28;20284;-71
2022/12/06 20:04:30;;;;;;;20.07;8.87;;;9.00;7.10;;;;;;5045448;28;20459;-71
2022/12/06 20:06:57;;;;;;;14.97;7.97;;;6.50;6.70;;;;;;5050014;28;20407;-71
2022/12/06 20:09:25;;;;;;;15.77;8.27;;;6.30;10.60;;;;;;5046738;28;20847;-71
2022/12/06 20:12:01;;;;;;;12.73;7.30;;;6.30;12.90;;;;;;5048481;28;20458;-71
2022/12/06 20:14:44;;;;;;;12.50;6.83;;;6.20;19.10;;;;;;5045765;28;20435;-69
2022/12/06 20:17:13;;;;;;;9.30;6.23;;;6.10;20.40;;;;;;5044635;28;20411;-70
2022/12/06 20:19:42;;;;;;;9.93;6.67;;;6.00;30.20;;;;;;5048597;28;21044;-70
2022/12/06 20:22:09;;;;;;;10.10;7.17;;;6.00;35.60;;;;;;5051098;28;20451;-72
2022/12/06 20:24:34;;;;;;;10.10;7.20;;;5.90;35.50;;;;;;5047762;28;20432;-71
2022/12/06 20:27:00;;;;;;;11.10;6.77;;;5.80;35.40;;;;;;5045613;28;20794;-69
2022/12/06 20:29:26;;;;;;;9.93;6.90;;;5.80;33.40;;;;;;5047760;28;20173;-70
2022/12/06 20:31:54;;;;;;;10.40;6.97;;;5.80;35.70;;;;;;5050174;28;20355;-71